Danzig, North Dakota
Current Conditions -  °F | °C
As of 12:55 PM on Tuesday 27 Jan 2015 (Local Time) from K7L2 Reporting Station
Clear Clear  
Wind Chill: 39°   Ceiling: Unl
Heat Index: 45°   Visibility: 10mi
Dew Point: 39°   Wind: 12mph
Humidity: 81%   Direction: 190°S
Pressure: 29.88"   Gusts: NA
Location:  46.0926°N, 99.1856°W
Report Text: K7L2 271855Z AUTO 19010KT 10SM CLR 07/04 A2988 RMK AO2
Loading
Personal Weather Stations






























Interactive Weather Map New forecast layout! Learn more

10-Day Weather Forecast

Advertisements
Track Severe Weather on mobile